sensor_id;sensor_type;location;lat;lon;timestamp;pressure;altitude;pressure_sealevel;temperature;humidity
50702;BME280;36670;50.094;8.496;2022-12-28T00:00:21;101092.38;;;5.73;70.95
50702;BME280;36670;50.094;8.496;2022-12-28T00:02:47;101091.38;;;5.81;70.66
50702;BME280;36670;50.094;8.496;2022-12-28T00:05:12;101088.03;;;5.86;70.77
50702;BME280;36670;50.094;8.496;2022-12-28T00:07:37;101075.94;;;5.73;70.50
50702;BME280;36670;50.094;8.496;2022-12-28T00:10:03;101067.91;;;5.65;70.71
50702;BME280;36670;50.094;8.496;2022-12-28T00:12:28;101058.78;;;5.58;70.60
50702;BME280;36670;50.094;8.496;2022-12-28T00:14:54;101059.81;;;5.50;71.01
50702;BME280;36670;50.094;8.496;2022-12-28T00:17:19;101053.44;;;5.43;70.84
50702;BME280;36670;50.094;8.496;2022-12-28T00:19:45;101056.97;;;5.37;71.35
50702;BME280;36670;50.094;8.496;2022-12-28T00:22:10;101047.59;;;5.53;70.97
50702;BME280;36670;50.094;8.496;2022-12-28T00:24:36;101043.09;;;5.45;71.49
50702;BME280;36670;50.094;8.496;2022-12-28T00:27:01;101035.72;;;5.74;71.25
50702;BME280;36670;50.094;8.496;2022-12-28T00:29:26;101034.47;;;5.83;70.37
50702;BME280;36670;50.094;8.496;2022-12-28T00:31:51;101027.34;;;5.95;70.38
50702;BME280;36670;50.094;8.496;2022-12-28T00:34:17;101027.91;;;5.77;70.96
50702;BME280;36670;50.094;8.496;2022-12-28T00:36:42;101023.16;;;5.93;71.26
50702;BME280;36670;50.094;8.496;2022-12-28T00:39:07;101012.81;;;5.95;70.50
50702;BME280;36670;50.094;8.496;2022-12-28T00:41:33;101014.03;;;5.86;71.25
50702;BME280;36670;50.094;8.496;2022-12-28T00:43:58;101009.22;;;5.88;70.89
50702;BME280;36670;50.094;8.496;2022-12-28T00:46:23;101000.63;;;5.97;70.75
50702;BME280;36670;50.094;8.496;2022-12-28T00:48:48;101012.19;;;5.93;71.09
50702;BME280;36670;50.094;8.496;2022-12-28T00:51:17;100994.75;;;6.01;70.58
50702;BME280;36670;50.094;8.496;2022-12-28T00:53:43;101001.25;;;6.00;70.69
50702;BME280;36670;50.094;8.496;2022-12-28T00:56:13;100992.84;;;6.01;70.79
50702;BME280;36670;50.094;8.496;2022-12-28T00:58:40;100966.53;;;5.65;71.07
50702;BME280;36670;50.094;8.496;2022-12-28T01:01:10;100961.53;;;5.75;71.22
50702;BME280;36670;50.094;8.496;2022-12-28T01:03:36;100956.84;;;5.69;70.83
50702;BME280;36670;50.094;8.496;2022-12-28T01:06:05;100954.94;;;5.63;71.85
50702;BME280;36670;50.094;8.496;2022-12-28T01:08:31;100958.00;;;5.95;71.08
50702;BME280;36670;50.094;8.496;2022-12-28T01:10:56;100955.66;;;5.85;71.09
50702;BME280;36670;50.094;8.496;2022-12-28T01:13:21;100949.66;;;5.61;71.62
50702;BME280;36670;50.094;8.496;2022-12-28T01:15:47;100955.69;;;5.92;71.07
50702;BME280;36670;50.094;8.496;2022-12-28T01:18:12;100945.34;;;5.94;70.60
50702;BME280;36670;50.094;8.496;2022-12-28T01:20:56;100939.41;;;5.84;70.59
50702;BME280;36670;50.094;8.496;2022-12-28T01:23:21;100936.69;;;5.97;70.31
50702;BME280;36670;50.094;8.496;2022-12-28T01:25:47;100941.81;;;6.00;70.51
50702;BME280;36670;50.094;8.496;2022-12-28T01:28:12;100935.47;;;5.93;71.23
50702;BME280;36670;50.094;8.496;2022-12-28T01:30:37;100931.63;;;5.87;71.07
50702;BME280;36670;50.094;8.496;2022-12-28T01:33:02;100928.53;;;6.04;70.37
50702;BME280;36670;50.094;8.496;2022-12-28T01:35:28;100923.91;;;6.04;70.19
50702;BME280;36670;50.094;8.496;2022-12-28T01:37:55;100935.88;;;5.96;71.09
50702;BME280;36670;50.094;8.496;2022-12-28T01:40:20;100937.03;;;6.22;70.36
50702;BME280;36670;50.094;8.496;2022-12-28T01:42:46;100932.56;;;6.14;69.79
50702;BME280;36670;50.094;8.496;2022-12-28T01:45:19;100937.25;;;6.34;70.16
50702;BME280;36670;50.094;8.496;2022-12-28T01:47:48;100929.22;;;6.32;69.81
50702;BME280;36670;50.094;8.496;2022-12-28T01:50:18;100925.22;;;6.28;70.12
50702;BME280;36670;50.094;8.496;2022-12-28T01:52:52;100925.63;;;6.19;69.55
50702;BME280;36670;50.094;8.496;2022-12-28T01:55:23;100926.66;;;6.11;70.05
50702;BME280;36670;50.094;8.496;2022-12-28T01:57:58;100923.75;;;6.39;70.24
50702;BME280;36670;50.094;8.496;2022-12-28T02:00:25;100922.88;;;6.39;69.34
50702;BME280;36670;50.094;8.496;2022-12-28T02:02:57;100914.47;;;6.47;69.26
50702;BME280;36670;50.094;8.496;2022-12-28T02:05:26;100904.16;;;6.56;68.90
50702;BME280;36670;50.094;8.496;2022-12-28T02:08:01;100907.50;;;6.58;69.22
50702;BME280;36670;50.094;8.496;2022-12-28T02:10:30;100909.41;;;6.57;69.51
50702;BME280;36670;50.094;8.496;2022-12-28T02:12:58;100913.22;;;6.36;69.50
50702;BME280;36670;50.094;8.496;2022-12-28T02:15:24;100921.00;;;6.26;69.77
50702;BME280;36670;50.094;8.496;2022-12-28T02:17:49;100921.00;;;6.32;69.49
50702;BME280;36670;50.094;8.496;2022-12-28T02:20:15;100919.31;;;6.38;69.81
50702;BME280;36670;50.094;8.496;2022-12-28T02:23:02;100902.41;;;6.08;70.37
50702;BME280;36670;50.094;8.496;2022-12-28T02:25:56;100889.03;;;5.91;70.10
50702;BME280;36670;50.094;8.496;2022-12-28T02:31:12;100889.56;;;6.08;70.95
50702;BME280;36670;50.094;8.496;2022-12-28T02:33:44;100889.56;;;6.22;70.20
50702;BME280;36670;50.094;8.496;2022-12-28T02:36:18;100888.28;;;6.24;70.60
50702;BME280;36670;50.094;8.496;2022-12-28T02:38:50;100880.50;;;6.21;70.18
50702;BME280;36670;50.094;8.496;2022-12-28T02:41:20;100876.63;;;5.95;70.85
50702;BME280;36670;50.094;8.496;2022-12-28T02:43:46;100865.66;;;5.95;70.52
50702;BME280;36670;50.094;8.496;2022-12-28T02:46:20;100856.38;;;5.90;71.21
50702;BME280;36670;50.094;8.496;2022-12-28T02:49:19;100841.84;;;5.89;71.54
50702;BME280;36670;50.094;8.496;2022-12-28T02:52:31;100842.28;;;6.00;71.19
50702;BME280;36670;50.094;8.496;2022-12-28T02:55:35;100834.09;;;6.20;70.72
50702;BME280;36670;50.094;8.496;2022-12-28T03:04:26;100829.88;;;6.10;70.82
50702;BME280;36670;50.094;8.496;2022-12-28T03:09:59;100828.16;;;6.09;70.78
50702;BME280;36670;50.094;8.496;2022-12-28T03:12:42;100831.13;;;6.01;71.06
50702;BME280;36670;50.094;8.496;2022-12-28T03:15:13;100820.59;;;6.05;70.96
50702;BME280;36670;50.094;8.496;2022-12-28T03:17:41;100815.94;;;6.12;71.48
50702;BME280;36670;50.094;8.496;2022-12-28T03:20:29;100823.50;;;5.96;71.64
50702;BME280;36670;50.094;8.496;2022-12-28T03:23:16;100819.53;;;5.99;72.09
50702;BME280;36670;50.094;8.496;2022-12-28T03:26:03;100809.59;;;6.31;71.60
50702;BME280;36670;50.094;8.496;2022-12-28T03:28:50;100813.22;;;6.25;71.45
50702;BME280;36670;50.094;8.496;2022-12-28T03:31:35;100801.81;;;6.35;71.14
50702;BME280;36670;50.094;8.496;2022-12-28T03:34:02;100789.97;;;6.41;71.26
50702;BME280;36670;50.094;8.496;2022-12-28T03:36:46;100784.94;;;6.45;71.22
50702;BME280;36670;50.094;8.496;2022-12-28T03:39:31;100781.13;;;6.39;70.97
50702;BME280;36670;50.094;8.496;2022-12-28T03:42:05;100772.25;;;6.44;71.19
50702;BME280;36670;50.094;8.496;2022-12-28T03:45:00;100763.78;;;6.65;70.31
50702;BME280;36670;50.094;8.496;2022-12-28T03:47:27;100768.84;;;6.69;70.44
50702;BME280;36670;50.094;8.496;2022-12-28T03:49:54;100755.50;;;6.79;70.28
50702;BME280;36670;50.094;8.496;2022-12-28T03:52:19;100752.50;;;6.87;70.08
50702;BME280;36670;50.094;8.496;2022-12-28T03:54:45;100746.75;;;6.37;71.74
50702;BME280;36670;50.094;8.496;2022-12-28T03:57:10;100746.66;;;6.70;70.64
50702;BME280;36670;50.094;8.496;2022-12-28T03:59:36;100738.19;;;6.78;70.19
50702;BME280;36670;50.094;8.496;2022-12-28T04:02:01;100726.94;;;6.93;70.08
50702;BME280;36670;50.094;8.496;2022-12-28T04:04:26;100735.69;;;6.63;70.99
50702;BME280;36670;50.094;8.496;2022-12-28T04:06:51;100731.09;;;6.57;70.94
50702;BME280;36670;50.094;8.496;2022-12-28T04:09:17;100725.78;;;6.62;70.89
50702;BME280;36670;50.094;8.496;2022-12-28T04:11:42;100732.78;;;6.58;71.04
50702;BME280;36670;50.094;8.496;2022-12-28T04:14:07;100730.88;;;6.59;71.16
50702;BME280;36670;50.094;8.496;2022-12-28T04:16:33;100722.63;;;6.65;70.90
50702;BME280;36670;50.094;8.496;2022-12-28T04:18:58;100704.75;;;6.43;71.43
50702;BME280;36670;50.094;8.496;2022-12-28T04:21:23;100718.69;;;6.35;71.44
50702;BME280;36670;50.094;8.496;2022-12-28T04:23:48;100721.31;;;6.75;70.67
50702;BME280;36670;50.094;8.496;2022-12-28T04:26:15;100722.19;;;6.62;71.22
50702;BME280;36670;50.094;8.496;2022-12-28T04:28:41;100724.94;;;6.62;71.44
50702;BME280;36670;50.094;8.496;2022-12-28T04:31:09;100731.25;;;6.69;70.98
50702;BME280;36670;50.094;8.496;2022-12-28T04:33:36;100718.72;;;6.93;70.97
50702;BME280;36670;50.094;8.496;2022-12-28T04:36:07;100709.00;;;6.91;70.32
50702;BME280;36670;50.094;8.496;2022-12-28T04:38:34;100709.66;;;6.86;70.63
50702;BME280;36670;50.094;8.496;2022-12-28T04:41:00;100712.47;;;6.73;70.96
50702;BME280;36670;50.094;8.496;2022-12-28T04:43:26;100704.88;;;6.68;70.69
50702;BME280;36670;50.094;8.496;2022-12-28T04:45:57;100708.84;;;6.79;70.83
50702;BME280;36670;50.094;8.496;2022-12-28T04:48:24;100706.06;;;6.86;71.01
50702;BME280;36670;50.094;8.496;2022-12-28T04:50:49;100699.56;;;6.73;70.97
50702;BME280;36670;50.094;8.496;2022-12-28T04:53:14;100700.69;;;6.65;71.54
50702;BME280;36670;50.094;8.496;2022-12-28T04:55:40;100698.63;;;6.93;71.01
50702;BME280;36670;50.094;8.496;2022-12-28T04:58:05;100690.59;;;6.98;70.57
50702;BME280;36670;50.094;8.496;2022-12-28T05:00:30;100686.81;;;6.99;71.19
50702;BME280;36670;50.094;8.496;2022-12-28T05:02:59;100685.56;;;6.95;70.68
50702;BME280;36670;50.094;8.496;2022-12-28T05:05:25;100688.28;;;7.02;70.74
50702;BME280;36670;50.094;8.496;2022-12-28T05:07:50;100682.78;;;7.02;71.16
50702;BME280;36670;50.094;8.496;2022-12-28T05:10:16;100681.59;;;6.84;71.49
50702;BME280;36670;50.094;8.496;2022-12-28T05:12:41;100685.88;;;7.12;70.54
50702;BME280;36670;50.094;8.496;2022-12-28T05:15:07;100671.88;;;7.20;69.82
50702;BME280;36670;50.094;8.496;2022-12-28T05:17:32;100680.91;;;6.89;70.63
50702;BME280;36670;50.094;8.496;2022-12-28T05:19:58;100675.88;;;6.86;70.83
50702;BME280;36670;50.094;8.496;2022-12-28T05:22:23;100679.88;;;6.90;71.04
50702;BME280;36670;50.094;8.496;2022-12-28T05:24:48;100675.72;;;7.12;70.72
50702;BME280;36670;50.094;8.496;2022-12-28T05:27:14;100669.66;;;7.04;70.77
50702;BME280;36670;50.094;8.496;2022-12-28T05:29:39;100663.56;;;7.02;70.51
50702;BME280;36670;50.094;8.496;2022-12-28T05:32:05;100657.47;;;6.93;70.69
50702;BME280;36670;50.094;8.496;2022-12-28T05:34:30;100656.09;;;7.15;70.68
50702;BME280;36670;50.094;8.496;2022-12-28T05:36:55;100654.25;;;7.34;70.48
50702;BME280;36670;50.094;8.496;2022-12-28T05:39:20;100643.94;;;7.30;70.08
50702;BME280;36670;50.094;8.496;2022-12-28T05:41:46;100646.72;;;7.48;69.82
50702;BME280;36670;50.094;8.496;2022-12-28T05:44:11;100638.06;;;7.51;69.85
50702;BME280;36670;50.094;8.496;2022-12-28T05:46:36;100640.31;;;7.61;69.83
50702;BME280;36670;50.094;8.496;2022-12-28T05:49:02;100642.97;;;7.43;69.74
50702;BME280;36670;50.094;8.496;2022-12-28T05:51:29;100635.88;;;7.35;70.00
50702;BME280;36670;50.094;8.496;2022-12-28T05:53:57;100637.25;;;7.44;69.79
50702;BME280;36670;50.094;8.496;2022-12-28T05:56:25;100628.78;;;7.46;69.87
50702;BME280;36670;50.094;8.496;2022-12-28T05:58:53;100624.59;;;7.43;70.21
50702;BME280;36670;50.094;8.496;2022-12-28T06:01:21;100624.16;;;7.46;70.04
50702;BME280;36670;50.094;8.496;2022-12-28T06:03:52;100608.22;;;7.30;70.52
50702;BME280;36670;50.094;8.496;2022-12-28T06:06:18;100608.75;;;7.13;71.25
50702;BME280;36670;50.094;8.496;2022-12-28T06:08:45;100615.09;;;7.14;70.92
50702;BME280;36670;50.094;8.496;2022-12-28T06:11:22;100608.38;;;7.10;71.29
50702;BME280;36670;50.094;8.496;2022-12-28T06:13:47;100601.25;;;7.02;71.37
50702;BME280;36670;50.094;8.496;2022-12-28T06:16:19;100597.06;;;6.93;71.69
50702;BME280;36670;50.094;8.496;2022-12-28T06:18:45;100592.94;;;7.15;71.61
50702;BME280;36670;50.094;8.496;2022-12-28T06:21:15;100587.59;;;7.21;71.87
50702;BME280;36670;50.094;8.496;2022-12-28T06:23:42;100590.84;;;7.11;71.25
50702;BME280;36670;50.094;8.496;2022-12-28T06:26:09;100597.44;;;7.03;72.07
50702;BME280;36670;50.094;8.496;2022-12-28T06:28:36;100585.56;;;7.09;71.93
50702;BME280;36670;50.094;8.496;2022-12-28T06:31:35;100587.59;;;7.21;71.59
50702;BME280;36670;50.094;8.496;2022-12-28T06:34:02;100592.34;;;7.32;71.76
50702;BME280;36670;50.094;8.496;2022-12-28T06:36:31;100592.66;;;7.24;71.75
50702;BME280;36670;50.094;8.496;2022-12-28T06:38:58;100587.94;;;7.31;72.04
50702;BME280;36670;50.094;8.496;2022-12-28T06:41:25;100586.97;;;7.44;71.00
50702;BME280;36670;50.094;8.496;2022-12-28T06:43:50;100587.59;;;7.46;71.06
50702;BME280;36670;50.094;8.496;2022-12-28T06:46:18;100588.50;;;7.40;71.33
50702;BME280;36670;50.094;8.496;2022-12-28T06:48:44;100589.69;;;7.25;71.81
50702;BME280;36670;50.094;8.496;2022-12-28T06:51:15;100582.88;;;7.28;71.46
50702;BME280;36670;50.094;8.496;2022-12-28T06:53:42;100571.06;;;7.27;71.75
50702;BME280;36670;50.094;8.496;2022-12-28T06:56:11;100573.13;;;7.57;70.95
50702;BME280;36670;50.094;8.496;2022-12-28T06:58:36;100573.47;;;7.42;71.21
50702;BME280;36670;50.094;8.496;2022-12-28T07:03:34;100567.28;;;7.47;71.24
50702;BME280;36670;50.094;8.496;2022-12-28T07:06:00;100561.47;;;7.37;71.63
50702;BME280;36670;50.094;8.496;2022-12-28T07:08:27;100564.00;;;7.38;72.15
50702;BME280;36670;50.094;8.496;2022-12-28T07:10:52;100561.06;;;7.33;72.36
50702;BME280;36670;50.094;8.496;2022-12-28T07:13:18;100562.09;;;7.39;72.03
50702;BME280;36670;50.094;8.496;2022-12-28T07:15:44;100557.75;;;7.49;71.78
50702;BME280;36670;50.094;8.496;2022-12-28T07:18:09;100554.28;;;7.61;71.72
50702;BME280;36670;50.094;8.496;2022-12-28T07:20:34;100550.16;;;7.51;71.63
50702;BME280;36670;50.094;8.496;2022-12-28T07:22:59;100547.84;;;7.48;71.42
50702;BME280;36670;50.094;8.496;2022-12-28T07:25:25;100551.22;;;7.50;71.92
50702;BME280;36670;50.094;8.496;2022-12-28T07:27:50;100550.22;;;7.63;71.74
50702;BME280;36670;50.094;8.496;2022-12-28T07:30:15;100544.84;;;7.50;71.36
50702;BME280;36670;50.094;8.496;2022-12-28T07:32:41;100550.59;;;7.48;71.86
50702;BME280;36670;50.094;8.496;2022-12-28T07:35:06;100555.03;;;7.49;71.66
50702;BME280;36670;50.094;8.496;2022-12-28T07:37:31;100550.59;;;7.48;71.53
50702;BME280;36670;50.094;8.496;2022-12-28T07:39:57;100558.41;;;7.51;72.04
50702;BME280;36670;50.094;8.496;2022-12-28T07:42:22;100548.28;;;7.45;72.08
50702;BME280;36670;50.094;8.496;2022-12-28T07:44:47;100544.25;;;7.48;71.64
50702;BME280;36670;50.094;8.496;2022-12-28T07:47:13;100540.50;;;7.42;72.15
50702;BME280;36670;50.094;8.496;2022-12-28T07:49:39;100546.50;;;7.58;71.77
50702;BME280;36670;50.094;8.496;2022-12-28T07:52:04;100550.28;;;7.57;71.38
50702;BME280;36670;50.094;8.496;2022-12-28T07:54:30;100542.59;;;7.65;71.89
50702;BME280;36670;50.094;8.496;2022-12-28T07:56:55;100541.91;;;7.70;71.18
50702;BME280;36670;50.094;8.496;2022-12-28T07:59:20;100536.78;;;7.74;71.42
50702;BME280;36670;50.094;8.496;2022-12-28T08:01:49;100537.41;;;7.57;71.63
50702;BME280;36670;50.094;8.496;2022-12-28T08:04:15;100534.75;;;7.69;70.97
50702;BME280;36670;50.094;8.496;2022-12-28T08:06:44;100531.84;;;7.82;71.13
50702;BME280;36670;50.094;8.496;2022-12-28T08:09:12;100521.22;;;7.86;71.60
50702;BME280;36670;50.094;8.496;2022-12-28T08:11:41;100532.53;;;7.96;70.26
50702;BME280;36670;50.094;8.496;2022-12-28T08:14:08;100524.13;;;7.91;70.86
50702;BME280;36670;50.094;8.496;2022-12-28T08:16:36;100524.53;;;7.95;70.97
50702;BME280;36670;50.094;8.496;2022-12-28T08:19:03;100526.56;;;7.99;70.44
50702;BME280;36670;50.094;8.496;2022-12-28T08:21:36;100530.41;;;7.80;71.19
50702;BME280;36670;50.094;8.496;2022-12-28T08:24:02;100529.41;;;7.74;71.08
50702;BME280;36670;50.094;8.496;2022-12-28T08:26:33;100521.91;;;7.63;71.10
50702;BME280;36670;50.094;8.496;2022-12-28T08:29:02;100525.03;;;7.66;71.64
50702;BME280;36670;50.094;8.496;2022-12-28T08:31:30;100518.00;;;7.71;71.08
50702;BME280;36670;50.094;8.496;2022-12-28T08:33:57;100506.56;;;7.92;70.74
50702;BME280;36670;50.094;8.496;2022-12-28T08:36:23;100513.84;;;7.86;70.99
50702;BME280;36670;50.094;8.496;2022-12-28T08:38:49;100503.97;;;7.79;70.84
50702;BME280;36670;50.094;8.496;2022-12-28T08:41:20;100505.91;;;7.78;70.71
50702;BME280;36670;50.094;8.496;2022-12-28T08:43:46;100500.16;;;7.80;71.67
50702;BME280;36670;50.094;8.496;2022-12-28T08:46:15;100499.00;;;7.88;71.33
50702;BME280;36670;50.094;8.496;2022-12-28T08:48:41;100501.06;;;7.74;71.14
50702;BME280;36670;50.094;8.496;2022-12-28T08:51:12;100502.84;;;7.86;71.03
50702;BME280;36670;50.094;8.496;2022-12-28T08:53:38;100508.34;;;7.86;71.17
50702;BME280;36670;50.094;8.496;2022-12-28T08:56:15;100493.50;;;7.88;71.13
50702;BME280;36670;50.094;8.496;2022-12-28T08:58:44;100492.59;;;7.94;70.62
50702;BME280;36670;50.094;8.496;2022-12-28T09:01:12;100492.84;;;7.92;71.34
50702;BME280;36670;50.094;8.496;2022-12-28T09:03:39;100498.44;;;8.16;70.97
50702;BME280;36670;50.094;8.496;2022-12-28T09:06:06;100490.31;;;8.21;70.54
50702;BME280;36670;50.094;8.496;2022-12-28T09:08:32;100497.81;;;8.32;70.52
50702;BME280;36670;50.094;8.496;2022-12-28T09:10:59;100504.75;;;8.65;70.46
50702;BME280;36670;50.094;8.496;2022-12-28T09:13:25;100507.28;;;8.67;70.35
50702;BME280;36670;50.094;8.496;2022-12-28T09:15:59;100497.59;;;8.64;69.47
50702;BME280;36670;50.094;8.496;2022-12-28T09:18:24;100504.41;;;8.62;69.88
50702;BME280;36670;50.094;8.496;2022-12-28T09:20:50;100497.06;;;8.56;70.31
50702;BME280;36670;50.094;8.496;2022-12-28T09:23:15;100501.38;;;8.51;69.74
50702;BME280;36670;50.094;8.496;2022-12-28T09:25:40;100504.06;;;8.70;69.33
50702;BME280;36670;50.094;8.496;2022-12-28T09:28:05;100499.97;;;8.73;69.45
50702;BME280;36670;50.094;8.496;2022-12-28T09:30:31;100505.66;;;8.90;69.53
50702;BME280;36670;50.094;8.496;2022-12-28T09:32:56;100498.00;;;8.80;69.88
50702;BME280;36670;50.094;8.496;2022-12-28T09:35:41;100503.84;;;8.83;69.65
50702;BME280;36670;50.094;8.496;2022-12-28T09:38:07;100501.09;;;8.83;69.81
50702;BME280;36670;50.094;8.496;2022-12-28T09:40:35;100497.13;;;8.79;69.25
50702;BME280;36670;50.094;8.496;2022-12-28T09:43:02;100495.72;;;8.88;69.38
50702;BME280;36670;50.094;8.496;2022-12-28T09:45:28;100497.03;;;8.86;69.49
50702;BME280;36670;50.094;8.496;2022-12-28T09:47:59;100499.06;;;8.91;69.82
50702;BME280;36670;50.094;8.496;2022-12-28T09:50:28;100494.41;;;9.03;69.55
50702;BME280;36670;50.094;8.496;2022-12-28T09:53:29;100495.75;;;9.12;69.91
50702;BME280;36670;50.094;8.496;2022-12-28T09:56:05;100493.13;;;9.41;69.25
50702;BME280;36670;50.094;8.496;2022-12-28T09:58:38;100491.66;;;9.50;68.46
50702;BME280;36670;50.094;8.496;2022-12-28T10:01:10;100488.91;;;9.62;68.35
50702;BME280;36670;50.094;8.496;2022-12-28T10:03:38;100490.97;;;9.55;68.31
50702;BME280;36670;50.094;8.496;2022-12-28T10:06:13;100488.22;;;9.55;68.12
50702;BME280;36670;50.094;8.496;2022-12-28T10:08:45;100479.56;;;9.63;68.03
50702;BME280;36670;50.094;8.496;2022-12-28T10:11:17;100479.00;;;9.37;67.72
50702;BME280;36670;50.094;8.496;2022-12-28T10:13:44;100478.38;;;9.47;67.61
50702;BME280;36670;50.094;8.496;2022-12-28T10:16:17;100483.66;;;9.37;67.70
50702;BME280;36670;50.094;8.496;2022-12-28T10:18:43;100475.75;;;9.52;67.98
50702;BME280;36670;50.094;8.496;2022-12-28T10:21:09;100466.97;;;9.67;68.25
50702;BME280;36670;50.094;8.496;2022-12-28T10:23:35;100464.19;;;9.79;67.79
50702;BME280;36670;50.094;8.496;2022-12-28T10:26:03;100459.28;;;9.81;67.52
50702;BME280;36670;50.094;8.496;2022-12-28T10:28:40;100457.09;;;9.83;68.15
50702;BME280;36670;50.094;8.496;2022-12-28T10:31:11;100453.13;;;9.91;67.86
50702;BME280;36670;50.094;8.496;2022-12-28T10:33:39;100455.53;;;9.87;66.66
50702;BME280;36670;50.094;8.496;2022-12-28T10:36:10;100446.34;;;9.70;67.25
50702;BME280;36670;50.094;8.496;2022-12-28T10:38:37;100445.38;;;9.64;67.78
50702;BME280;36670;50.094;8.496;2022-12-28T10:41:08;100450.34;;;9.38;67.89
50702;BME280;36670;50.094;8.496;2022-12-28T10:43:36;100460.66;;;9.43;67.77
50702;BME280;36670;50.094;8.496;2022-12-28T10:46:11;100458.59;;;9.62;68.01
50702;BME280;36670;50.094;8.496;2022-12-28T10:48:38;100458.81;;;9.72;67.93
50702;BME280;36670;50.094;8.496;2022-12-28T10:51:16;100458.66;;;9.91;67.84
50702;BME280;36670;50.094;8.496;2022-12-28T10:53:45;100450.06;;;9.76;67.76
50702;BME280;36670;50.094;8.496;2022-12-28T10:58:35;100457.53;;;9.63;67.47
50702;BME280;36670;50.094;8.496;2022-12-28T11:03:44;100444.09;;;9.55;68.27
50702;BME280;36670;50.094;8.496;2022-12-28T11:06:20;100440.91;;;9.34;68.09
50702;BME280;36670;50.094;8.496;2022-12-28T11:09:20;100443.03;;;9.44;67.60
50702;BME280;36670;50.094;8.496;2022-12-28T11:11:47;100440.06;;;9.34;68.19
50702;BME280;36670;50.094;8.496;2022-12-28T11:16:48;100411.34;;;9.06;69.28
50702;BME280;36670;50.094;8.496;2022-12-28T11:19:14;100412.88;;;9.14;68.55
50702;BME280;36670;50.094;8.496;2022-12-28T11:21:41;100411.94;;;9.20;68.31
50702;BME280;36670;50.094;8.496;2022-12-28T11:24:11;100405.19;;;9.28;68.01
50702;BME280;36670;50.094;8.496;2022-12-28T11:26:40;100408.78;;;9.28;68.75
50702;BME280;36670;50.094;8.496;2022-12-28T11:29:08;100391.06;;;9.24;68.83
50702;BME280;36670;50.094;8.496;2022-12-28T11:31:41;100381.47;;;9.27;68.22
50702;BME280;36670;50.094;8.496;2022-12-28T11:34:14;100378.59;;;9.45;68.63
50702;BME280;36670;50.094;8.496;2022-12-28T11:36:41;100362.31;;;9.72;68.61
50702;BME280;36670;50.094;8.496;2022-12-28T11:41:50;100357.72;;;10.36;68.00
50702;BME280;36670;50.094;8.496;2022-12-28T11:47:19;100349.91;;;10.84;67.01
50702;BME280;36670;50.094;8.496;2022-12-28T11:49:46;100344.06;;;10.63;67.10
50702;BME280;36670;50.094;8.496;2022-12-28T11:54:56;100350.50;;;10.69;67.46
50702;BME280;36670;50.094;8.496;2022-12-28T11:57:36;100337.00;;;10.89;66.66
50702;BME280;36670;50.094;8.496;2022-12-28T12:02:52;100328.97;;;10.88;66.85
50702;BME280;36670;50.094;8.496;2022-12-28T12:10:37;100308.16;;;10.63;66.51
50702;BME280;36670;50.094;8.496;2022-12-28T12:15:47;100306.78;;;10.61;67.46
50702;BME280;36670;50.094;8.496;2022-12-28T12:18:18;100300.22;;;10.67;66.91
50702;BME280;36670;50.094;8.496;2022-12-28T12:21:02;100293.06;;;10.88;66.66
50702;BME280;36670;50.094;8.496;2022-12-28T12:23:50;100290.13;;;10.95;67.25
50702;BME280;36670;50.094;8.496;2022-12-28T12:26:32;100291.38;;;11.04;66.22
50702;BME280;36670;50.094;8.496;2022-12-28T12:29:27;100299.88;;;10.80;67.45
50702;BME280;36670;50.094;8.496;2022-12-28T12:32:02;100293.69;;;10.73;66.95
50702;BME280;36670;50.094;8.496;2022-12-28T12:34:44;100285.47;;;10.78;67.80
50702;BME280;36670;50.094;8.496;2022-12-28T12:38:01;100286.28;;;10.56;67.58
50702;BME280;36670;50.094;8.496;2022-12-28T12:40:15;100279.16;;;10.44;68.02
50702;BME280;36670;50.094;8.496;2022-12-28T12:43:11;100288.88;;;10.46;68.59
50702;BME280;36670;50.094;8.496;2022-12-28T12:49:02;100295.72;;;10.44;68.67
50702;BME280;36670;50.094;8.496;2022-12-28T12:54:21;100282.97;;;10.25;68.81
50702;BME280;36670;50.094;8.496;2022-12-28T12:57:05;100287.94;;;10.40;68.48
50702;BME280;36670;50.094;8.496;2022-12-28T13:05:20;100275.88;;;10.30;69.31
50702;BME280;36670;50.094;8.496;2022-12-28T13:07:47;100272.63;;;10.33;68.44
50702;BME280;36670;50.094;8.496;2022-12-28T13:10:15;100274.28;;;10.34;68.89
50702;BME280;36670;50.094;8.496;2022-12-28T13:12:41;100270.34;;;10.30;68.52
50702;BME280;36670;50.094;8.496;2022-12-28T13:15:14;100263.88;;;10.36;68.53
50702;BME280;36670;50.094;8.496;2022-12-28T13:17:56;100267.63;;;10.47;67.87
50702;BME280;36670;50.094;8.496;2022-12-28T13:20:22;100264.94;;;10.52;67.96
50702;BME280;36670;50.094;8.496;2022-12-28T13:22:47;100257.69;;;10.46;68.27
50702;BME280;36670;50.094;8.496;2022-12-28T13:25:23;100254.75;;;10.35;68.94
50702;BME280;36670;50.094;8.496;2022-12-28T13:27:48;100251.81;;;10.42;68.32
50702;BME280;36670;50.094;8.496;2022-12-28T13:30:18;100247.22;;;10.48;68.20
50702;BME280;36670;50.094;8.496;2022-12-28T13:32:55;100242.81;;;10.47;68.70
50702;BME280;36670;50.094;8.496;2022-12-28T13:35:27;100232.19;;;10.38;68.58
50702;BME280;36670;50.094;8.496;2022-12-28T13:40:34;100226.53;;;10.50;68.94
50702;BME280;36670;50.094;8.496;2022-12-28T13:43:20;100220.03;;;10.56;68.22
50702;BME280;36670;50.094;8.496;2022-12-28T13:45:57;100214.25;;;10.58;68.84
50702;BME280;36670;50.094;8.496;2022-12-28T13:48:25;100212.06;;;10.60;68.44
50702;BME280;36670;50.094;8.496;2022-12-28T13:50:52;100216.28;;;10.46;68.42
50702;BME280;36670;50.094;8.496;2022-12-28T13:53:20;100217.97;;;10.47;68.99
50702;BME280;36670;50.094;8.496;2022-12-28T13:56:02;100201.88;;;10.44;68.94
50702;BME280;36670;50.094;8.496;2022-12-28T13:58:37;100214.34;;;10.46;69.30
50702;BME280;36670;50.094;8.496;2022-12-28T14:01:08;100200.81;;;10.45;69.08
50702;BME280;36670;50.094;8.496;2022-12-28T14:03:37;100201.06;;;10.43;69.24
50702;BME280;36670;50.094;8.496;2022-12-28T14:06:04;100197.66;;;10.36;68.89